sensor_id;sensor_type;location;lat;lon;timestamp;P1;durP1;ratioP1;P2;durP2;ratioP2
3943;SDS011;1986;52.546;13.428;2023-05-15T00:00:59;15.73;;;15.13;;
3943;SDS011;1986;52.546;13.428;2023-05-15T00:03:27;15.60;;;15.00;;
3943;SDS011;1986;52.546;13.428;2023-05-15T00:05:56;15.30;;;14.70;;
3943;SDS011;1986;52.546;13.428;2023-05-15T00:08:23;15.40;;;14.80;;
3943;SDS011;1986;52.546;13.428;2023-05-15T00:10:50;15.60;;;15.00;;
3943;SDS011;1986;52.546;13.428;2023-05-15T00:13:17;18.10;;;16.63;;
3943;SDS011;1986;52.546;13.428;2023-05-15T00:15:44;15.50;;;14.90;;
3943;SDS011;1986;52.546;13.428;2023-05-15T00:18:11;15.57;;;14.97;;
3943;SDS011;1986;52.546;13.428;2023-05-15T00:20:38;18.10;;;17.30;;
3943;SDS011;1986;52.546;13.428;2023-05-15T00:23:06;15.50;;;14.90;;
3943;SDS011;1986;52.546;13.428;2023-05-15T00:25:34;14.93;;;14.33;;
3943;SDS011;1986;52.546;13.428;2023-05-15T00:28:01;15.20;;;14.60;;
3943;SDS011;1986;52.546;13.428;2023-05-15T00:30:28;15.10;;;14.50;;
3943;SDS011;1986;52.546;13.428;2023-05-15T00:32:55;14.87;;;14.27;;
3943;SDS011;1986;52.546;13.428;2023-05-15T00:35:22;14.93;;;14.33;;
3943;SDS011;1986;52.546;13.428;2023-05-15T00:37:49;14.97;;;14.37;;
3943;SDS011;1986;52.546;13.428;2023-05-15T00:40:18;15.10;;;14.50;;
3943;SDS011;1986;52.546;13.428;2023-05-15T00:42:47;15.03;;;14.43;;
3943;SDS011;1986;52.546;13.428;2023-05-15T00:45:15;16.07;;;15.37;;
3943;SDS011;1986;52.546;13.428;2023-05-15T00:47:42;15.43;;;14.83;;
3943;SDS011;1986;52.546;13.428;2023-05-15T00:50:12;14.70;;;14.10;;
3943;SDS011;1986;52.546;13.428;2023-05-15T00:52:40;14.40;;;13.90;;
3943;SDS011;1986;52.546;13.428;2023-05-15T00:55:08;14.23;;;13.70;;
3943;SDS011;1986;52.546;13.428;2023-05-15T00:57:37;15.10;;;14.50;;
3943;SDS011;1986;52.546;13.428;2023-05-15T01:00:07;15.40;;;14.80;;
3943;SDS011;1986;52.546;13.428;2023-05-15T01:02:34;15.63;;;14.93;;
3943;SDS011;1986;52.546;13.428;2023-05-15T01:05:02;15.63;;;15.03;;
3943;SDS011;1986;52.546;13.428;2023-05-15T01:07:29;14.20;;;13.70;;
3943;SDS011;1986;52.546;13.428;2023-05-15T01:10:01;14.40;;;13.90;;
3943;SDS011;1986;52.546;13.428;2023-05-15T01:12:29;14.60;;;14.00;;
3943;SDS011;1986;52.546;13.428;2023-05-15T01:14:58;14.40;;;13.90;;
3943;SDS011;1986;52.546;13.428;2023-05-15T01:17:25;14.17;;;13.67;;
3943;SDS011;1986;52.546;13.428;2023-05-15T01:19:52;16.43;;;15.70;;
3943;SDS011;1986;52.546;13.428;2023-05-15T01:22:32;14.20;;;13.70;;
3943;SDS011;1986;52.546;13.428;2023-05-15T01:28:11;14.00;;;13.50;;
3943;SDS011;1986;52.546;13.428;2023-05-15T01:30:41;19.80;;;17.63;;
3943;SDS011;1986;52.546;13.428;2023-05-15T01:33:14;18.07;;;16.73;;
3943;SDS011;1986;52.546;13.428;2023-05-15T01:35:48;13.60;;;13.10;;
3943;SDS011;1986;52.546;13.428;2023-05-15T01:38:26;13.40;;;12.90;;
3943;SDS011;1986;52.546;13.428;2023-05-15T01:41:01;14.27;;;13.67;;
3943;SDS011;1986;52.546;13.428;2023-05-15T01:43:36;13.90;;;13.40;;
3943;SDS011;1986;52.546;13.428;2023-05-15T01:46:07;13.97;;;13.47;;
3943;SDS011;1986;52.546;13.428;2023-05-15T01:48:39;16.80;;;16.07;;
3943;SDS011;1986;52.546;13.428;2023-05-15T01:51:08;16.00;;;14.87;;
3943;SDS011;1986;52.546;13.428;2023-05-15T01:53:38;13.60;;;13.10;;
3943;SDS011;1986;52.546;13.428;2023-05-15T01:56:08;13.60;;;13.10;;
3943;SDS011;1986;52.546;13.428;2023-05-15T01:58:38;13.00;;;12.60;;
3943;SDS011;1986;52.546;13.428;2023-05-15T02:01:07;13.73;;;13.23;;
3943;SDS011;1986;52.546;13.428;2023-05-15T02:03:35;14.50;;;13.90;;
3943;SDS011;1986;52.546;13.428;2023-05-15T02:06:03;13.07;;;12.67;;
3943;SDS011;1986;52.546;13.428;2023-05-15T02:08:31;13.50;;;13.00;;
3943;SDS011;1986;52.546;13.428;2023-05-15T02:10:59;13.20;;;12.80;;
3943;SDS011;1986;52.546;13.428;2023-05-15T02:13:28;14.80;;;13.90;;
3943;SDS011;1986;52.546;13.428;2023-05-15T02:15:57;13.57;;;13.07;;
3943;SDS011;1986;52.546;13.428;2023-05-15T02:18:25;14.37;;;13.87;;
3943;SDS011;1986;52.546;13.428;2023-05-15T02:20:52;12.70;;;12.30;;
3943;SDS011;1986;52.546;13.428;2023-05-15T02:23:19;13.27;;;12.87;;
3943;SDS011;1986;52.546;13.428;2023-05-15T02:25:49;14.70;;;14.07;;
3943;SDS011;1986;52.546;13.428;2023-05-15T02:28:39;14.03;;;13.53;;
3943;SDS011;1986;52.546;13.428;2023-05-15T02:31:16;15.00;;;14.50;;
3943;SDS011;1986;52.546;13.428;2023-05-15T02:33:50;13.67;;;13.17;;
3943;SDS011;1986;52.546;13.428;2023-05-15T02:36:24;13.77;;;13.27;;
3943;SDS011;1986;52.546;13.428;2023-05-15T02:38:54;14.80;;;14.10;;
3943;SDS011;1986;52.546;13.428;2023-05-15T02:41:23;12.60;;;12.20;;
3943;SDS011;1986;52.546;13.428;2023-05-15T02:43:51;12.87;;;12.47;;
3943;SDS011;1986;52.546;13.428;2023-05-15T02:46:20;12.73;;;12.33;;
3943;SDS011;1986;52.546;13.428;2023-05-15T02:48:48;13.10;;;12.60;;
3943;SDS011;1986;52.546;13.428;2023-05-15T02:51:16;14.33;;;13.73;;
3943;SDS011;1986;52.546;13.428;2023-05-15T02:53:44;13.53;;;13.03;;
3943;SDS011;1986;52.546;13.428;2023-05-15T02:56:10;12.47;;;12.07;;
3943;SDS011;1986;52.546;13.428;2023-05-15T02:58:37;12.73;;;12.33;;
3943;SDS011;1986;52.546;13.428;2023-05-15T03:01:05;12.07;;;11.67;;
3943;SDS011;1986;52.546;13.428;2023-05-15T03:03:33;14.00;;;13.50;;
3943;SDS011;1986;52.546;13.428;2023-05-15T03:06:01;11.40;;;11.10;;
3943;SDS011;1986;52.546;13.428;2023-05-15T03:08:27;12.87;;;12.33;;
3943;SDS011;1986;52.546;13.428;2023-05-15T03:10:55;13.53;;;13.03;;
3943;SDS011;1986;52.546;13.428;2023-05-15T03:13:21;12.33;;;11.93;;
3943;SDS011;1986;52.546;13.428;2023-05-15T03:15:48;12.10;;;11.70;;
3943;SDS011;1986;52.546;13.428;2023-05-15T03:18:16;12.30;;;11.90;;
3943;SDS011;1986;52.546;13.428;2023-05-15T03:20:45;11.73;;;11.43;;
3943;SDS011;1986;52.546;13.428;2023-05-15T03:23:13;13.90;;;13.40;;
3943;SDS011;1986;52.546;13.428;2023-05-15T03:25:40;12.77;;;12.37;;
3943;SDS011;1986;52.546;13.428;2023-05-15T03:28:07;13.00;;;12.60;;
3943;SDS011;1986;52.546;13.428;2023-05-15T03:30:34;13.13;;;12.73;;
3943;SDS011;1986;52.546;13.428;2023-05-15T03:33:01;12.60;;;12.20;;
3943;SDS011;1986;52.546;13.428;2023-05-15T03:35:28;12.30;;;11.90;;
3943;SDS011;1986;52.546;13.428;2023-05-15T03:37:57;12.97;;;12.57;;
3943;SDS011;1986;52.546;13.428;2023-05-15T03:40:24;17.47;;;16.77;;
3943;SDS011;1986;52.546;13.428;2023-05-15T03:42:51;12.57;;;12.17;;
3943;SDS011;1986;52.546;13.428;2023-05-15T03:45:18;14.13;;;13.23;;
3943;SDS011;1986;52.546;13.428;2023-05-15T03:47:45;16.10;;;15.10;;
3943;SDS011;1986;52.546;13.428;2023-05-15T03:50:12;16.63;;;15.70;;
3943;SDS011;1986;52.546;13.428;2023-05-15T03:52:40;13.67;;;13.17;;
3943;SDS011;1986;52.546;13.428;2023-05-15T03:55:08;13.20;;;12.80;;
3943;SDS011;1986;52.546;13.428;2023-05-15T03:57:35;14.70;;;14.10;;
3943;SDS011;1986;52.546;13.428;2023-05-15T04:00:06;18.63;;;17.67;;
3943;SDS011;1986;52.546;13.428;2023-05-15T04:02:35;13.97;;;13.47;;
3943;SDS011;1986;52.546;13.428;2023-05-15T04:05:02;14.43;;;13.73;;
3943;SDS011;1986;52.546;13.428;2023-05-15T04:07:32;15.50;;;14.80;;
3943;SDS011;1986;52.546;13.428;2023-05-15T04:10:00;13.90;;;13.40;;
3943;SDS011;1986;52.546;13.428;2023-05-15T04:12:28;14.33;;;13.60;;
3943;SDS011;1986;52.546;13.428;2023-05-15T04:14:58;13.87;;;13.37;;
3943;SDS011;1986;52.546;13.428;2023-05-15T04:17:39;15.77;;;14.93;;
3943;SDS011;1986;52.546;13.428;2023-05-15T04:20:06;14.03;;;13.47;;
3943;SDS011;1986;52.546;13.428;2023-05-15T04:22:35;13.30;;;12.90;;
3943;SDS011;1986;52.546;13.428;2023-05-15T04:25:02;13.87;;;13.37;;
3943;SDS011;1986;52.546;13.428;2023-05-15T04:27:31;12.90;;;12.50;;
3943;SDS011;1986;52.546;13.428;2023-05-15T04:29:58;14.27;;;13.77;;
3943;SDS011;1986;52.546;13.428;2023-05-15T04:32:25;13.00;;;12.60;;
3943;SDS011;1986;52.546;13.428;2023-05-15T04:34:53;15.37;;;14.37;;
3943;SDS011;1986;52.546;13.428;2023-05-15T04:37:20;15.47;;;14.47;;
3943;SDS011;1986;52.546;13.428;2023-05-15T04:39:47;13.87;;;13.37;;
3943;SDS011;1986;52.546;13.428;2023-05-15T04:42:14;14.60;;;14.10;;
3943;SDS011;1986;52.546;13.428;2023-05-15T04:44:42;15.70;;;15.00;;
3943;SDS011;1986;52.546;13.428;2023-05-15T04:47:09;13.90;;;13.40;;
3943;SDS011;1986;52.546;13.428;2023-05-15T04:49:38;15.40;;;14.77;;
3943;SDS011;1986;52.546;13.428;2023-05-15T04:52:06;14.90;;;14.30;;
3943;SDS011;1986;52.546;13.428;2023-05-15T04:54:36;14.53;;;14.03;;
3943;SDS011;1986;52.546;13.428;2023-05-15T04:57:03;15.13;;;14.53;;
3943;SDS011;1986;52.546;13.428;2023-05-15T04:59:30;15.00;;;14.30;;
3943;SDS011;1986;52.546;13.428;2023-05-15T05:01:58;16.27;;;15.57;;
3943;SDS011;1986;52.546;13.428;2023-05-15T05:04:26;14.80;;;14.20;;
3943;SDS011;1986;52.546;13.428;2023-05-15T05:06:53;17.10;;;16.30;;
3943;SDS011;1986;52.546;13.428;2023-05-15T05:09:20;16.20;;;15.50;;
3943;SDS011;1986;52.546;13.428;2023-05-15T05:11:47;18.10;;;17.10;;
3943;SDS011;1986;52.546;13.428;2023-05-15T05:14:14;18.13;;;17.10;;
3943;SDS011;1986;52.546;13.428;2023-05-15T05:16:50;19.93;;;18.70;;
3943;SDS011;1986;52.546;13.428;2023-05-15T05:19:18;20.47;;;19.37;;
3943;SDS011;1986;52.546;13.428;2023-05-15T05:21:45;19.20;;;18.13;;
3943;SDS011;1986;52.546;13.428;2023-05-15T05:24:12;22.30;;;20.50;;
3943;SDS011;1986;52.546;13.428;2023-05-15T05:26:41;19.47;;;18.37;;
3943;SDS011;1986;52.546;13.428;2023-05-15T05:29:09;19.60;;;18.50;;
3943;SDS011;1986;52.546;13.428;2023-05-15T05:31:36;19.90;;;18.80;;
3943;SDS011;1986;52.546;13.428;2023-05-15T05:34:03;20.70;;;19.30;;
3943;SDS011;1986;52.546;13.428;2023-05-15T05:36:32;21.50;;;20.20;;
3943;SDS011;1986;52.546;13.428;2023-05-15T05:39:00;21.60;;;20.30;;
3943;SDS011;1986;52.546;13.428;2023-05-15T05:41:28;20.80;;;19.50;;
3943;SDS011;1986;52.546;13.428;2023-05-15T05:43:55;22.00;;;20.60;;
3943;SDS011;1986;52.546;13.428;2023-05-15T05:46:22;22.07;;;20.67;;
3943;SDS011;1986;52.546;13.428;2023-05-15T05:48:50;20.67;;;19.37;;
3943;SDS011;1986;52.546;13.428;2023-05-15T05:51:17;21.10;;;19.80;;
3943;SDS011;1986;52.546;13.428;2023-05-15T05:53:45;22.30;;;20.90;;
3943;SDS011;1986;52.546;13.428;2023-05-15T05:56:12;21.20;;;19.80;;
3943;SDS011;1986;52.546;13.428;2023-05-15T05:58:39;22.10;;;20.60;;
3943;SDS011;1986;52.546;13.428;2023-05-15T06:01:06;22.43;;;20.93;;
3943;SDS011;1986;52.546;13.428;2023-05-15T06:03:33;20.20;;;19.00;;
3943;SDS011;1986;52.546;13.428;2023-05-15T06:06:01;20.90;;;19.60;;
3943;SDS011;1986;52.546;13.428;2023-05-15T06:08:28;20.20;;;19.00;;
3943;SDS011;1986;52.546;13.428;2023-05-15T06:11:01;20.47;;;19.17;;
3943;SDS011;1986;52.546;13.428;2023-05-15T06:13:28;20.30;;;19.10;;
3943;SDS011;1986;52.546;13.428;2023-05-15T06:15:56;22.27;;;20.87;;
3943;SDS011;1986;52.546;13.428;2023-05-15T06:18:23;20.03;;;18.83;;
3943;SDS011;1986;52.546;13.428;2023-05-15T06:20:50;20.70;;;19.40;;
3943;SDS011;1986;52.546;13.428;2023-05-15T06:23:17;19.97;;;18.77;;
3943;SDS011;1986;52.546;13.428;2023-05-15T06:25:44;20.30;;;19.10;;
3943;SDS011;1986;52.546;13.428;2023-05-15T06:28:13;20.00;;;18.80;;
3943;SDS011;1986;52.546;13.428;2023-05-15T06:30:39;20.80;;;19.50;;
3943;SDS011;1986;52.546;13.428;2023-05-15T06:33:07;21.53;;;20.03;;
3943;SDS011;1986;52.546;13.428;2023-05-15T06:35:33;21.27;;;19.97;;
3943;SDS011;1986;52.546;13.428;2023-05-15T06:38:01;22.00;;;20.50;;
3943;SDS011;1986;52.546;13.428;2023-05-15T06:40:30;22.37;;;20.87;;
3943;SDS011;1986;52.546;13.428;2023-05-15T06:42:57;21.33;;;20.03;;
3943;SDS011;1986;52.546;13.428;2023-05-15T06:45:25;20.60;;;19.30;;
3943;SDS011;1986;52.546;13.428;2023-05-15T06:47:52;20.90;;;19.60;;
3943;SDS011;1986;52.546;13.428;2023-05-15T06:50:19;21.70;;;20.30;;
3943;SDS011;1986;52.546;13.428;2023-05-15T06:52:46;21.23;;;19.83;;
3943;SDS011;1986;52.546;13.428;2023-05-15T06:55:13;22.97;;;21.40;;
3943;SDS011;1986;52.546;13.428;2023-05-15T06:57:41;23.10;;;21.50;;
3943;SDS011;1986;52.546;13.428;2023-05-15T07:00:08;22.47;;;20.97;;
3943;SDS011;1986;52.546;13.428;2023-05-15T07:02:37;21.37;;;19.97;;
3943;SDS011;1986;52.546;13.428;2023-05-15T07:05:05;21.67;;;20.23;;
3943;SDS011;1986;52.546;13.428;2023-05-15T07:07:32;21.13;;;19.73;;
3943;SDS011;1986;52.546;13.428;2023-05-15T07:09:59;23.10;;;21.60;;
3943;SDS011;1986;52.546;13.428;2023-05-15T07:12:26;20.93;;;19.63;;
3943;SDS011;1986;52.546;13.428;2023-05-15T07:14:53;24.80;;;22.93;;
3943;SDS011;1986;52.546;13.428;2023-05-15T07:17:20;24.90;;;23.03;;
3943;SDS011;1986;52.546;13.428;2023-05-15T07:19:49;21.77;;;20.37;;
3943;SDS011;1986;52.546;13.428;2023-05-15T07:22:16;21.13;;;19.83;;
3943;SDS011;1986;52.546;13.428;2023-05-15T07:24:43;21.80;;;20.40;;
3943;SDS011;1986;52.546;13.428;2023-05-15T07:27:10;22.70;;;21.20;;
3943;SDS011;1986;52.546;13.428;2023-05-15T07:29:37;22.00;;;20.60;;
3943;SDS011;1986;52.546;13.428;2023-05-15T07:32:04;22.67;;;21.07;;
3943;SDS011;1986;52.546;13.428;2023-05-15T07:34:32;21.60;;;20.20;;
3943;SDS011;1986;52.546;13.428;2023-05-15T07:37:00;22.30;;;20.80;;
3943;SDS011;1986;52.546;13.428;2023-05-15T07:39:30;23.23;;;21.57;;
3943;SDS011;1986;52.546;13.428;2023-05-15T07:41:58;23.27;;;21.77;;
3943;SDS011;1986;52.546;13.428;2023-05-15T07:44:24;23.10;;;21.40;;
3943;SDS011;1986;52.546;13.428;2023-05-15T07:46:52;22.43;;;20.83;;
3943;SDS011;1986;52.546;13.428;2023-05-15T07:49:20;23.20;;;21.60;;
3943;SDS011;1986;52.546;13.428;2023-05-15T07:51:48;24.13;;;22.43;;
3943;SDS011;1986;52.546;13.428;2023-05-15T07:54:16;22.93;;;21.33;;
3943;SDS011;1986;52.546;13.428;2023-05-15T07:56:43;23.37;;;21.77;;
3943;SDS011;1986;52.546;13.428;2023-05-15T07:59:11;23.13;;;21.50;;
3943;SDS011;1986;52.546;13.428;2023-05-15T08:01:44;24.03;;;22.30;;
3943;SDS011;1986;52.546;13.428;2023-05-15T08:04:11;24.47;;;22.63;;
3943;SDS011;1986;52.546;13.428;2023-05-15T08:06:38;22.80;;;21.20;;
3943;SDS011;1986;52.546;13.428;2023-05-15T08:09:06;22.90;;;21.30;;
3943;SDS011;1986;52.546;13.428;2023-05-15T08:11:35;23.20;;;21.50;;
3943;SDS011;1986;52.546;13.428;2023-05-15T08:14:02;23.20;;;21.50;;
3943;SDS011;1986;52.546;13.428;2023-05-15T08:16:29;23.83;;;22.13;;
3943;SDS011;1986;52.546;13.428;2023-05-15T08:18:56;24.20;;;22.60;;
3943;SDS011;1986;52.546;13.428;2023-05-15T08:21:27;25.60;;;23.33;;
3943;SDS011;1986;52.546;13.428;2023-05-15T08:23:55;27.83;;;25.13;;
3943;SDS011;1986;52.546;13.428;2023-05-15T08:26:24;24.60;;;22.90;;
3943;SDS011;1986;52.546;13.428;2023-05-15T08:29:07;23.87;;;22.27;;
3943;SDS011;1986;52.546;13.428;2023-05-15T08:31:36;24.47;;;22.77;;
3943;SDS011;1986;52.546;13.428;2023-05-15T08:34:03;23.30;;;21.70;;
3943;SDS011;1986;52.546;13.428;2023-05-15T08:36:30;23.30;;;21.70;;
3943;SDS011;1986;52.546;13.428;2023-05-15T08:38:57;22.83;;;21.33;;
3943;SDS011;1986;52.546;13.428;2023-05-15T08:41:27;23.70;;;22.10;;
3943;SDS011;1986;52.546;13.428;2023-05-15T08:43:57;25.43;;;23.57;;
3943;SDS011;1986;52.546;13.428;2023-05-15T08:46:32;24.53;;;22.83;;
3943;SDS011;1986;52.546;13.428;2023-05-15T08:49:00;23.40;;;21.90;;
3943;SDS011;1986;52.546;13.428;2023-05-15T08:51:31;24.77;;;23.07;;
3943;SDS011;1986;52.546;13.428;2023-05-15T08:53:59;26.97;;;24.77;;
3943;SDS011;1986;52.546;13.428;2023-05-15T08:56:27;25.83;;;23.50;;
3943;SDS011;1986;52.546;13.428;2023-05-15T08:58:54;24.00;;;22.50;;
3943;SDS011;1986;52.546;13.428;2023-05-15T09:01:21;24.70;;;23.10;;
3943;SDS011;1986;52.546;13.428;2023-05-15T09:03:50;23.70;;;22.10;;
3943;SDS011;1986;52.546;13.428;2023-05-15T09:06:19;23.00;;;21.50;;
3943;SDS011;1986;52.546;13.428;2023-05-15T09:08:48;24.03;;;22.43;;
3943;SDS011;1986;52.546;13.428;2023-05-15T09:11:20;24.80;;;23.17;;
3943;SDS011;1986;52.546;13.428;2023-05-15T09:13:49;26.63;;;24.40;;
3943;SDS011;1986;52.546;13.428;2023-05-15T09:16:16;25.87;;;23.97;;
3943;SDS011;1986;52.546;13.428;2023-05-15T09:18:45;25.73;;;23.83;;
3943;SDS011;1986;52.546;13.428;2023-05-15T09:21:21;23.10;;;21.60;;
3943;SDS011;1986;52.546;13.428;2023-05-15T09:23:50;24.03;;;22.20;;
3943;SDS011;1986;52.546;13.428;2023-05-15T09:26:22;23.73;;;22.17;;
3943;SDS011;1986;52.546;13.428;2023-05-15T09:28:50;24.70;;;22.90;;
3943;SDS011;1986;52.546;13.428;2023-05-15T09:31:17;23.80;;;22.20;;
3943;SDS011;1986;52.546;13.428;2023-05-15T09:33:46;25.77;;;23.67;;
3943;SDS011;1986;52.546;13.428;2023-05-15T09:36:26;32.03;;;26.40;;
3943;SDS011;1986;52.546;13.428;2023-05-15T09:38:56;25.30;;;23.60;;
3943;SDS011;1986;52.546;13.428;2023-05-15T09:41:24;25.73;;;23.93;;
3943;SDS011;1986;52.546;13.428;2023-05-15T09:43:51;23.70;;;22.10;;
3943;SDS011;1986;52.546;13.428;2023-05-15T09:46:20;23.17;;;21.67;;
3943;SDS011;1986;52.546;13.428;2023-05-15T09:48:48;24.63;;;22.83;;
3943;SDS011;1986;52.546;13.428;2023-05-15T09:51:19;24.07;;;22.37;;
3943;SDS011;1986;52.546;13.428;2023-05-15T09:53:48;24.60;;;22.60;;
3943;SDS011;1986;52.546;13.428;2023-05-15T09:56:16;23.70;;;22.00;;
3943;SDS011;1986;52.546;13.428;2023-05-15T09:58:53;25.20;;;23.33;;
3943;SDS011;1986;52.546;13.428;2023-05-15T10:01:21;23.80;;;22.10;;
3943;SDS011;1986;52.546;13.428;2023-05-15T10:03:58;24.60;;;22.80;;
3943;SDS011;1986;52.546;13.428;2023-05-15T10:06:28;24.67;;;22.87;;
3943;SDS011;1986;52.546;13.428;2023-05-15T10:09:02;24.40;;;22.60;;
3943;SDS011;1986;52.546;13.428;2023-05-15T10:11:30;25.67;;;23.77;;
3943;SDS011;1986;52.546;13.428;2023-05-15T10:14:01;25.90;;;23.90;;
3943;SDS011;1986;52.546;13.428;2023-05-15T10:16:28;24.73;;;22.93;;
3943;SDS011;1986;52.546;13.428;2023-05-15T10:18:58;24.53;;;22.83;;
3943;SDS011;1986;52.546;13.428;2023-05-15T10:21:29;24.33;;;22.10;;
3943;SDS011;1986;52.546;13.428;2023-05-15T10:24:03;24.07;;;22.40;;
3943;SDS011;1986;52.546;13.428;2023-05-15T10:26:34;23.90;;;22.30;;
3943;SDS011;1986;52.546;13.428;2023-05-15T10:29:03;23.50;;;21.90;;
3943;SDS011;1986;52.546;13.428;2023-05-15T10:31:32;23.90;;;22.20;;
3943;SDS011;1986;52.546;13.428;2023-05-15T10:34:00;23.30;;;21.70;;
3943;SDS011;1986;52.546;13.428;2023-05-15T10:36:31;22.80;;;21.30;;
3943;SDS011;1986;52.546;13.428;2023-05-15T10:38:59;25.43;;;23.57;;
3943;SDS011;1986;52.546;13.428;2023-05-15T10:41:31;22.40;;;20.90;;
3943;SDS011;1986;52.546;13.428;2023-05-15T10:44:02;24.17;;;22.47;;
3943;SDS011;1986;52.546;13.428;2023-05-15T10:46:30;24.53;;;22.73;;
3943;SDS011;1986;52.546;13.428;2023-05-15T10:49:02;29.87;;;21.73;;
3943;SDS011;1986;52.546;13.428;2023-05-15T10:51:30;25.13;;;23.03;;
3943;SDS011;1986;52.546;13.428;2023-05-15T10:54:01;21.60;;;20.20;;
3943;SDS011;1986;52.546;13.428;2023-05-15T10:56:32;22.47;;;21.07;;
3943;SDS011;1986;52.546;13.428;2023-05-15T10:59:04;22.30;;;20.80;;
3943;SDS011;1986;52.546;13.428;2023-05-15T11:01:33;22.57;;;20.70;;
3943;SDS011;1986;52.546;13.428;2023-05-15T11:04:09;23.50;;;21.60;;
3943;SDS011;1986;52.546;13.428;2023-05-15T11:06:38;23.20;;;21.60;;
3943;SDS011;1986;52.546;13.428;2023-05-15T11:12:08;22.70;;;21.20;;
3943;SDS011;1986;52.546;13.428;2023-05-15T11:14:43;25.23;;;23.27;;
3943;SDS011;1986;52.546;13.428;2023-05-15T11:17:30;23.50;;;21.80;;
3943;SDS011;1986;52.546;13.428;2023-05-15T11:19:58;24.23;;;22.53;;
3943;SDS011;1986;52.546;13.428;2023-05-15T11:22:28;24.53;;;22.73;;
3943;SDS011;1986;52.546;13.428;2023-05-15T11:25:06;25.53;;;23.73;;
3943;SDS011;1986;52.546;13.428;2023-05-15T11:27:49;25.90;;;24.03;;
3943;SDS011;1986;52.546;13.428;2023-05-15T11:30:21;26.73;;;24.73;;
3943;SDS011;1986;52.546;13.428;2023-05-15T11:32:49;25.40;;;23.50;;
3943;SDS011;1986;52.546;13.428;2023-05-15T11:35:20;26.40;;;24.50;;
3943;SDS011;1986;52.546;13.428;2023-05-15T11:37:49;26.60;;;24.70;;
3943;SDS011;1986;52.546;13.428;2023-05-15T11:40:19;26.30;;;24.40;;
3943;SDS011;1986;52.546;13.428;2023-05-15T11:43:06;26.27;;;24.37;;
3943;SDS011;1986;52.546;13.428;2023-05-15T11:45:41;27.10;;;25.20;;
3943;SDS011;1986;52.546;13.428;2023-05-15T11:48:12;26.87;;;24.97;;
3943;SDS011;1986;52.546;13.428;2023-05-15T11:50:41;27.80;;;25.80;;
3943;SDS011;1986;52.546;13.428;2023-05-15T11:53:10;27.80;;;25.80;;
3943;SDS011;1986;52.546;13.428;2023-05-15T11:55:37;27.10;;;25.10;;
3943;SDS011;1986;52.546;13.428;2023-05-15T11:58:11;27.10;;;25.20;;
3943;SDS011;1986;52.546;13.428;2023-05-15T12:00:39;27.00;;;25.10;;
3943;SDS011;1986;52.546;13.428;2023-05-15T12:03:13;27.93;;;25.53;;
3943;SDS011;1986;52.546;13.428;2023-05-15T12:05:41;26.07;;;24.17;;
3943;SDS011;1986;52.546;13.428;2023-05-15T12:08:09;26.67;;;24.77;;
3943;SDS011;1986;52.546;13.428;2023-05-15T12:10:39;27.83;;;25.73;;
3943;SDS011;1986;52.546;13.428;2023-05-15T12:13:20;27.20;;;25.20;;
3943;SDS011;1986;52.546;13.428;2023-05-15T12:15:47;27.47;;;25.47;;
3943;SDS011;1986;52.546;13.428;2023-05-15T12:18:14;28.23;;;26.13;;
3943;SDS011;1986;52.546;13.428;2023-05-15T12:20:41;28.47;;;26.37;;
3943;SDS011;1986;52.546;13.428;2023-05-15T12:23:13;27.70;;;25.70;;
3943;SDS011;1986;52.546;13.428;2023-05-15T12:25:40;27.90;;;25.80;;
3943;SDS011;1986;52.546;13.428;2023-05-15T12:28:11;27.60;;;25.50;;
3943;SDS011;1986;52.546;13.428;2023-05-15T12:30:49;27.80;;;25.70;;
3943;SDS011;1986;52.546;13.428;2023-05-15T12:33:16;27.90;;;25.80;;
3943;SDS011;1986;52.546;13.428;2023-05-15T12:35:54;29.50;;;27.20;;
3943;SDS011;1986;52.546;13.428;2023-05-15T12:38:22;30.00;;;27.70;;
3943;SDS011;1986;52.546;13.428;2023-05-15T12:40:50;30.20;;;27.90;;
3943;SDS011;1986;52.546;13.428;2023-05-15T12:43:20;30.10;;;27.80;;
3943;SDS011;1986;52.546;13.428;2023-05-15T12:45:53;31.77;;;29.37;;
3943;SDS011;1986;52.546;13.428;2023-05-15T12:48:22;30.50;;;28.20;;
3943;SDS011;1986;52.546;13.428;2023-05-15T12:50:55;32.20;;;29.73;;
3943;SDS011;1986;52.546;13.428;2023-05-15T12:53:30;31.73;;;29.23;;
3943;SDS011;1986;52.546;13.428;2023-05-15T12:55:58;31.70;;;29.40;;
3943;SDS011;1986;52.546;13.428;2023-05-15T12:58:27;30.90;;;28.50;;
3943;SDS011;1986;52.546;13.428;2023-05-15T13:00:55;32.23;;;29.87;;
3943;SDS011;1986;52.546;13.428;2023-05-15T13:03:23;31.00;;;28.70;;
3943;SDS011;1986;52.546;13.428;2023-05-15T13:05:51;31.07;;;28.80;;
3943;SDS011;1986;52.546;13.428;2023-05-15T13:08:19;32.30;;;29.80;;
3943;SDS011;1986;52.546;13.428;2023-05-15T13:10:46;30.90;;;28.70;;
3943;SDS011;1986;52.546;13.428;2023-05-15T13:13:20;31.93;;;29.53;;
3943;SDS011;1986;52.546;13.428;2023-05-15T13:15:50;33.00;;;30.50;;
3943;SDS011;1986;52.546;13.428;2023-05-15T13:18:19;33.20;;;30.70;;
3943;SDS011;1986;52.546;13.428;2023-05-15T13:20:47;33.83;;;31.30;;
3943;SDS011;1986;52.546;13.428;2023-05-15T13:23:17;32.93;;;30.43;;
3943;SDS011;1986;52.546;13.428;2023-05-15T13:25:45;32.77;;;30.37;;
3943;SDS011;1986;52.546;13.428;2023-05-15T13:28:13;33.47;;;30.87;;
3943;SDS011;1986;52.546;13.428;2023-05-15T13:30:40;31.53;;;29.13;;
3943;SDS011;1986;52.546;13.428;2023-05-15T13:33:10;31.97;;;29.43;;
3943;SDS011;1986;52.546;13.428;2023-05-15T13:35:38;30.63;;;28.33;;
3943;SDS011;1986;52.546;13.428;2023-05-15T13:38:07;28.93;;;26.73;;
3943;SDS011;1986;52.546;13.428;2023-05-15T13:40:35;27.33;;;25.30;;
3943;SDS011;1986;52.546;13.428;2023-05-15T13:43:09;27.30;;;25.20;;
3943;SDS011;1986;52.546;13.428;2023-05-15T13:45:46;25.47;;;23.67;;
3943;SDS011;1986;52.546;13.428;2023-05-15T13:48:29;25.53;;;23.37;;
3943;SDS011;1986;52.546;13.428;2023-05-15T13:51:01;22.43;;;20.93;;
3943;SDS011;1986;52.546;13.428;2023-05-15T13:53:44;22.07;;;20.60;;
3943;SDS011;1986;52.546;13.428;2023-05-15T13:56:16;22.17;;;20.87;;
3943;SDS011;1986;52.546;13.428;2023-05-15T13:58:46;21.63;;;20.33;;
3943;SDS011;1986;52.546;13.428;2023-05-15T14:01:22;20.60;;;19.40;;
3943;SDS011;1986;52.546;13.428;2023-05-15T14:03:51;22.80;;;21.30;;
3943;SDS011;1986;52.546;13.428;2023-05-15T14:06:26;20.40;;;19.40;;
3943;SDS011;1986;52.546;13.428;2023-05-15T14:09:07;20.63;;;19.50;;
3943;SDS011;1986;52.546;13.428;2023-05-15T14:11:37;17.70;;;16.90;;
3943;SDS011;1986;52.546;13.428;2023-05-15T14:14:07;18.40;;;17.20;;
3943;SDS011;1986;52.546;13.428;2023-05-15T14:16:37;17.60;;;16.57;;
3943;SDS011;1986;52.546;13.428;2023-05-15T14:19:08;17.10;;;16.30;;
3943;SDS011;1986;52.546;13.428;2023-05-15T14:21:38;25.03;;;18.10;;
3943;SDS011;1986;52.546;13.428;2023-05-15T14:24:07;16.47;;;15.73;;
3943;SDS011;1986;52.546;13.428;2023-05-15T14:26:40;16.77;;;15.97;;
3943;SDS011;1986;52.546;13.428;2023-05-15T14:29:14;17.90;;;17.10;;
3943;SDS011;1986;52.546;13.428;2023-05-15T14:31:42;17.67;;;16.67;;
3943;SDS011;1986;52.546;13.428;2023-05-15T14:34:11;15.63;;;14.83;;
3943;SDS011;1986;52.546;13.428;2023-05-15T14:36:39;15.50;;;14.90;;
3943;SDS011;1986;52.546;13.428;2023-05-15T14:39:09;15.90;;;15.10;;
3943;SDS011;1986;52.546;13.428;2023-05-15T14:41:53;15.90;;;15.20;;
3943;SDS011;1986;52.546;13.428;2023-05-15T14:44:21;16.67;;;15.97;;
3943;SDS011;1986;52.546;13.428;2023-05-15T14:47:03;16.70;;;16.00;;
3943;SDS011;1986;52.546;13.428;2023-05-15T14:49:34;17.10;;;16.30;;
3943;SDS011;1986;52.546;13.428;2023-05-15T14:52:05;19.30;;;18.03;;